createdAt,value
2022-11-29T00:02:15.166Z,49.22
2022-11-29T00:04:42.315Z,44.08
2022-11-29T00:07:09.040Z,43.80
2022-11-29T00:09:35.535Z,40.75
2022-11-29T00:14:41.597Z,45.40
2022-11-29T00:17:08.547Z,41.88
2022-11-29T00:19:36.925Z,41.70
2022-11-29T00:22:04.530Z,43.33
2022-11-29T00:24:32.443Z,44.08
2022-11-29T00:26:59.544Z,42.25
2022-11-29T00:29:27.924Z,43.78
2022-11-29T00:31:54.523Z,40.67
2022-11-29T00:34:21.176Z,45.75
2022-11-29T00:36:47.700Z,40.28
2022-11-29T00:39:16.238Z,45.45
2022-11-29T00:41:42.769Z,43.85
2022-11-29T00:44:11.932Z,43.17
2022-11-29T00:46:41.965Z,42.15
2022-11-29T00:49:08.486Z,45.08
2022-11-29T00:51:35.017Z,39.83
2022-11-29T00:54:01.538Z,42.90
2022-11-29T00:56:28.223Z,39.88
2022-11-29T00:58:54.888Z,41.20
2022-11-29T01:01:21.557Z,40.50
2022-11-29T01:03:48.183Z,44.75
2022-11-29T01:06:17.280Z,37.22
2022-11-29T01:08:45.691Z,41.08
2022-11-29T01:11:27.159Z,43.28
2022-11-29T01:13:57.373Z,45.00
2022-11-29T01:16:24.490Z,43.42
2022-11-29T01:18:51.182Z,42.90
2022-11-29T01:21:21.044Z,43.95
2022-11-29T01:23:48.927Z,40.03
2022-11-29T01:26:21.130Z,41.80
2022-11-29T01:28:49.972Z,41.88
2022-11-29T01:31:36.725Z,43.35
2022-11-29T01:34:05.269Z,49.67
2022-11-29T01:36:32.206Z,55.42
2022-11-29T01:39:04.027Z,45.85
2022-11-29T01:41:32.755Z,46.70
2022-11-29T01:44:05.120Z,42.95
2022-11-29T01:46:34.972Z,39.58
2022-11-29T01:49:17.265Z,45.33
2022-11-29T01:52:13.222Z,45.42
2022-11-29T01:54:45.284Z,42.35
2022-11-29T01:57:13.861Z,45.53
2022-11-29T01:59:47.985Z,43.00
2022-11-29T02:02:18.825Z,42.35
2022-11-29T02:04:47.055Z,51.75
2022-11-29T02:07:14.339Z,42.67
2022-11-29T02:09:41.059Z,47.25
2022-11-29T02:12:26.089Z,41.35
2022-11-29T02:15:10.630Z,41.78
2022-11-29T02:18:02.533Z,37.33
2022-11-29T02:21:06.460Z,44.40
2022-11-29T02:23:39.453Z,39.47
2022-11-29T02:26:21.412Z,42.03
2022-11-29T02:29:17.013Z,42.85
2022-11-29T02:32:15.605Z,41.33
2022-11-29T02:35:19.646Z,48.03
2022-11-29T02:37:52.043Z,42.22
2022-11-29T02:40:37.242Z,42.17
2022-11-29T02:43:25.690Z,38.45
2022-11-29T02:46:18.627Z,45.10
2022-11-29T02:49:00.386Z,46.95
2022-11-29T02:51:51.669Z,40.78
2022-11-29T02:54:29.832Z,43.35
2022-11-29T02:57:18.193Z,44.70
2022-11-29T02:59:53.726Z,47.13
2022-11-29T03:02:51.647Z,42.55
2022-11-29T03:08:30.731Z,46.53
2022-11-29T03:11:12.204Z,47.05
2022-11-29T03:13:43.344Z,46.83
2022-11-29T03:16:18.691Z,45.90
2022-11-29T03:19:03.816Z,42.42
2022-11-29T03:21:55.276Z,44.40
2022-11-29T03:24:31.556Z,44.00
2022-11-29T03:27:11.604Z,47.33
2022-11-29T03:29:44.729Z,49.53
2022-11-29T03:32:22.669Z,51.60
2022-11-29T03:35:07.731Z,49.85
2022-11-29T03:37:57.781Z,51.75
2022-11-29T03:40:56.592Z,47.70
2022-11-29T03:43:47.070Z,44.80
2022-11-29T03:46:40.044Z,52.80
2022-11-29T03:49:27.829Z,53.88
2022-11-29T03:52:12.726Z,47.63
2022-11-29T03:55:17.070Z,44.08
2022-11-29T03:57:55.606Z,44.05
2022-11-29T04:00:23.063Z,47.63
2022-11-29T04:02:58.366Z,46.13
2022-11-29T04:05:53.212Z,47.45
2022-11-29T04:08:34.967Z,44.78
2022-11-29T04:11:20.490Z,45.42
2022-11-29T04:14:08.759Z,50.40
2022-11-29T04:16:50.752Z,44.55
2022-11-29T04:19:26.210Z,48.90
2022-11-29T04:22:34.923Z,48.20
2022-11-29T04:25:39.440Z,51.00
2022-11-29T04:28:21.319Z,43.75
2022-11-29T04:31:22.406Z,43.60
2022-11-29T04:34:10.486Z,56.30
2022-11-29T04:36:48.941Z,50.70
2022-11-29T04:39:41.709Z,54.20
2022-11-29T04:42:37.170Z,47.83
2022-11-29T04:45:40.415Z,52.63
2022-11-29T04:48:51.517Z,54.60
2022-11-29T04:51:42.833Z,50.60
2022-11-29T04:54:32.516Z,50.97
2022-11-29T04:57:11.781Z,54.97
2022-11-29T04:59:51.691Z,45.70
2022-11-29T05:02:43.291Z,50.28
2022-11-29T05:05:40.457Z,48.92
2022-11-29T05:08:33.167Z,48.33
2022-11-29T05:11:10.614Z,51.80
2022-11-29T05:13:59.052Z,53.53
2022-11-29T05:16:48.780Z,46.80
2022-11-29T05:19:18.297Z,44.55
2022-11-29T05:22:00.273Z,52.67
2022-11-29T05:24:42.762Z,49.67
2022-11-29T05:27:26.226Z,47.08
2022-11-29T05:30:14.282Z,52.22
2022-11-29T05:33:02.623Z,48.25
2022-11-29T05:35:52.307Z,57.10
2022-11-29T05:38:48.353Z,51.00
2022-11-29T05:41:52.370Z,50.70
2022-11-29T05:44:34.095Z,52.58
2022-11-29T05:47:12.603Z,50.65
2022-11-29T05:50:00.917Z,47.53
2022-11-29T05:53:02.092Z,50.63
2022-11-29T05:56:01.108Z,52.97
2022-11-29T05:58:49.370Z,51.53
2022-11-29T06:01:29.882Z,52.80
2022-11-29T06:04:25.855Z,58.10
2022-11-29T06:07:10.418Z,52.78
2022-11-29T06:09:51.225Z,56.88
2022-11-29T06:12:22.906Z,46.45
2022-11-29T06:15:06.530Z,49.53
2022-11-29T06:18:09.037Z,48.88
2022-11-29T06:21:00.663Z,51.28
2022-11-29T06:24:12.370Z,54.70
2022-11-29T06:27:04.702Z,52.10
2022-11-29T06:29:58.038Z,53.45
2022-11-29T06:32:54.365Z,52.08
2022-11-29T06:35:47.548Z,49.88
2022-11-29T06:38:28.953Z,48.38
2022-11-29T06:41:02.092Z,48.35
2022-11-29T06:43:29.351Z,51.38
2022-11-29T06:45:58.891Z,51.35
2022-11-29T06:48:34.469Z,48.10
2022-11-29T06:51:12.808Z,48.60
2022-11-29T06:54:03.570Z,55.88
2022-11-29T06:56:35.772Z,49.45
2022-11-29T06:59:26.669Z,50.38
2022-11-29T07:02:17.510Z,55.50
2022-11-29T07:05:19.964Z,54.10
2022-11-29T07:07:48.367Z,53.35
2022-11-29T07:10:17.391Z,50.28
2022-11-29T07:12:48.593Z,53.17
2022-11-29T07:15:17.742Z,54.35
2022-11-29T07:17:59.412Z,55.60
2022-11-29T07:21:03.030Z,52.80
2022-11-29T07:23:38.073Z,52.40
2022-11-29T07:26:26.910Z,54.05
2022-11-29T07:29:08.110Z,53.65
2022-11-29T07:31:51.794Z,47.65
2022-11-29T07:34:40.170Z,49.30
2022-11-29T07:37:34.293Z,55.42
2022-11-29T07:40:12.041Z,55.88
2022-11-29T07:42:55.017Z,54.65
2022-11-29T07:45:29.032Z,53.80
2022-11-29T07:47:55.525Z,55.95
2022-11-29T07:52:49.117Z,54.67
2022-11-29T07:55:19.381Z,52.08
2022-11-29T07:57:46.653Z,53.97
2022-11-29T08:00:13.951Z,55.72
2022-11-29T08:02:41.268Z,48.60
2022-11-29T08:05:08.894Z,54.95
2022-11-29T08:07:40.281Z,53.88
2022-11-29T08:10:10.751Z,51.65
2022-11-29T08:12:43.737Z,47.45
2022-11-29T08:15:10.386Z,50.33
2022-11-29T08:17:38.521Z,51.10
2022-11-29T08:20:06.531Z,46.70
2022-11-29T08:22:33.202Z,48.65
2022-11-29T08:25:00.040Z,50.03
2022-11-29T08:27:26.811Z,49.10
2022-11-29T08:29:53.327Z,51.90
2022-11-29T08:32:20.027Z,50.70
2022-11-29T08:34:46.942Z,51.22
2022-11-29T08:37:13.684Z,54.20
2022-11-29T08:39:40.231Z,47.97
2022-11-29T08:42:06.734Z,47.85
2022-11-29T08:44:33.301Z,46.25
2022-11-29T08:47:18.394Z,43.33
2022-11-29T08:50:03.233Z,48.78
2022-11-29T08:52:50.620Z,53.38
2022-11-29T08:55:18.853Z,50.85
2022-11-29T08:57:46.347Z,51.47
2022-11-29T09:00:13.577Z,53.90
2022-11-29T09:02:40.243Z,53.97
2022-11-29T09:05:08.148Z,53.97
2022-11-29T09:07:34.861Z,50.35
2022-11-29T09:10:07.896Z,59.00
2022-11-29T09:12:36.293Z,53.15
2022-11-29T09:15:08.280Z,49.67
2022-11-29T09:17:34.867Z,52.58
2022-11-29T09:20:01.635Z,54.80
2022-11-29T09:22:28.202Z,54.65
2022-11-29T09:24:54.727Z,56.42
2022-11-29T09:27:21.223Z,54.60
2022-11-29T09:32:14.172Z,47.47
2022-11-29T09:34:42.260Z,54.38
2022-11-29T09:37:09.016Z,57.13
2022-11-29T09:39:35.521Z,54.83
2022-11-29T09:42:36.026Z,56.28
2022-11-29T09:45:19.323Z,55.90
2022-11-29T09:48:23.334Z,60.03
2022-11-29T09:51:06.849Z,62.58
2022-11-29T09:53:59.455Z,56.97
2022-11-29T09:56:39.107Z,57.33
2022-11-29T09:59:28.810Z,63.13
2022-11-29T10:02:04.051Z,57.95
2022-11-29T10:04:36.434Z,61.55
2022-11-29T10:07:11.114Z,54.80
2022-11-29T10:09:44.890Z,63.28
2022-11-29T10:12:55.085Z,67.20
2022-11-29T10:15:31.456Z,65.63
2022-11-29T10:18:24.424Z,69.90
2022-11-29T10:20:58.457Z,64.53
2022-11-29T10:23:44.585Z,67.07
2022-11-29T10:26:12.779Z,56.97
2022-11-29T10:28:48.604Z,62.30
2022-11-29T10:31:27.253Z,60.15
2022-11-29T10:33:55.911Z,58.17
2022-11-29T10:36:33.132Z,57.00
2022-11-29T10:39:09.954Z,55.45
2022-11-29T10:41:39.660Z,60.08
2022-11-29T10:44:06.397Z,52.83
2022-11-29T10:46:37.072Z,60.45
2022-11-29T10:49:06.996Z,63.50
2022-11-29T10:51:34.962Z,61.42
2022-11-29T10:54:18.398Z,59.42
2022-11-29T10:56:45.575Z,61.85
2022-11-29T10:59:22.888Z,55.50
2022-11-29T11:01:50.702Z,56.90
2022-11-29T11:04:44.532Z,53.60
2022-11-29T11:07:24.885Z,49.47
2022-11-29T11:09:55.800Z,49.58
2022-11-29T11:12:26.090Z,53.15
2022-11-29T11:15:23.143Z,50.25
2022-11-29T11:33:18.017Z,58.65
2022-11-29T11:35:44.572Z,55.85
2022-11-29T11:38:19.957Z,59.60
2022-11-29T11:40:46.674Z,54.33
2022-11-29T11:43:20.458Z,60.88
2022-11-29T11:45:53.562Z,56.50
2022-11-29T11:48:21.036Z,52.83
2022-11-29T11:50:57.456Z,62.05
2022-11-29T11:53:28.807Z,61.08
2022-11-29T11:55:59.363Z,58.67
2022-11-29T11:58:29.203Z,53.28
2022-11-29T12:01:18.150Z,53.13
2022-11-29T12:04:11.572Z,50.65
2022-11-29T12:06:49.308Z,48.45
2022-11-29T12:09:24.950Z,46.22
2022-11-29T12:12:03.654Z,53.85
2022-11-29T12:14:39.162Z,47.80
2022-11-29T12:17:22.624Z,52.08
2022-11-29T12:20:04.589Z,50.05
2022-11-29T12:22:47.900Z,45.35
2022-11-29T12:25:21.792Z,49.33
2022-11-29T12:27:51.797Z,48.10
2022-11-29T12:30:19.391Z,44.25
2022-11-29T12:33:01.207Z,44.92
2022-11-29T12:35:34.873Z,45.60
2022-11-29T12:38:16.817Z,40.30
2022-11-29T12:41:04.193Z,43.45
2022-11-29T12:43:38.466Z,36.95
2022-11-29T12:46:11.101Z,40.35
2022-11-29T12:49:03.630Z,42.67
2022-11-29T12:51:45.004Z,45.17
2022-11-29T12:54:26.120Z,41.50
2022-11-29T12:57:11.628Z,38.20
2022-11-29T13:00:00.700Z,35.80
2022-11-29T13:02:46.282Z,38.53
2022-11-29T13:05:27.805Z,39.08
2022-11-29T13:08:22.413Z,31.00
2022-11-29T13:11:01.704Z,32.83
2022-11-29T13:13:42.767Z,31.85
2022-11-29T13:16:36.119Z,33.70
2022-11-29T13:19:18.468Z,31.95
2022-11-29T13:22:12.721Z,30.38
2022-11-29T13:24:46.172Z,27.77
2022-11-29T13:27:37.067Z,33.40
2022-11-29T13:30:05.273Z,42.00
2022-11-29T13:32:39.680Z,33.42
2022-11-29T13:35:18.508Z,32.10
2022-11-29T13:37:55.407Z,35.17
2022-11-29T13:40:51.418Z,33.80
2022-11-29T13:43:37.820Z,33.05
2022-11-29T13:46:22.854Z,36.38
2022-11-29T13:48:52.499Z,33.10
2022-11-29T13:51:25.612Z,31.52
2022-11-29T13:53:54.066Z,33.80
2022-11-29T13:56:33.406Z,31.02
2022-11-29T13:59:04.454Z,32.42
2022-11-29T14:01:43.828Z,30.75
2022-11-29T14:04:27.996Z,32.28
2022-11-29T14:07:10.868Z,36.65
2022-11-29T14:09:45.480Z,30.73
2022-11-29T14:12:37.004Z,30.38
2022-11-29T14:15:22.730Z,36.95
2022-11-29T14:17:49.242Z,32.58
2022-11-29T14:23:06.390Z,30.45
2022-11-29T14:25:57.524Z,30.30
2022-11-29T14:28:23.963Z,33.00
2022-11-29T14:33:33.897Z,30.10
2022-11-29T14:36:17.461Z,29.92
2022-11-29T14:38:46.743Z,29.95
2022-11-29T14:41:41.934Z,29.90
2022-11-29T14:44:21.852Z,30.05
2022-11-29T14:46:49.048Z,31.90
2022-11-29T14:49:24.686Z,35.50
2022-11-29T14:52:12.970Z,30.33
2022-11-29T14:54:58.312Z,32.92
2022-11-29T14:57:46.754Z,30.77
2022-11-29T15:00:16.014Z,33.75
2022-11-29T15:02:48.419Z,41.33
2022-11-29T15:05:33.754Z,38.15
2022-11-29T15:08:40.766Z,38.92
2022-11-29T15:11:10.019Z,41.97
2022-11-29T15:13:44.296Z,54.20
2022-11-29T15:16:23.910Z,46.40
2022-11-29T15:19:35.047Z,43.53
2022-11-29T15:22:15.106Z,43.00
2022-11-29T15:24:59.902Z,38.30
2022-11-29T15:27:26.481Z,40.20
2022-11-29T15:29:53.004Z,35.50
2022-11-29T15:34:51.535Z,37.92
2022-11-29T15:37:39.498Z,39.42
2022-11-29T15:40:14.906Z,45.28
2022-11-29T15:43:00.019Z,38.92
2022-11-29T15:45:28.684Z,39.20
2022-11-29T15:48:09.430Z,38.20
2022-11-29T15:50:36.201Z,36.05
2022-11-29T15:53:07.011Z,33.47
2022-11-29T15:55:33.789Z,38.42
2022-11-29T15:58:08.323Z,39.08
2022-11-29T16:00:36.295Z,41.92
2022-11-29T16:03:05.046Z,39.42
2022-11-29T16:05:37.486Z,40.75
2022-11-29T16:08:08.481Z,43.38
2022-11-29T16:10:43.506Z,38.83
2022-11-29T16:13:57.804Z,38.72
2022-11-29T16:16:25.767Z,38.38
2022-11-29T16:18:52.347Z,40.90
2022-11-29T16:21:25.381Z,49.72
2022-11-29T16:23:53.075Z,44.88
2022-11-29T16:26:34.384Z,48.42
2022-11-29T16:29:02.592Z,44.63
2022-11-29T16:31:37.755Z,41.65
2022-11-29T16:34:23.171Z,43.22
2022-11-29T16:37:06.290Z,42.63
2022-11-29T16:39:36.638Z,45.72
2022-11-29T16:42:25.778Z,44.53
2022-11-29T16:44:56.674Z,38.60
2022-11-29T16:47:26.405Z,36.80
2022-11-29T16:50:02.713Z,47.20
2022-11-29T16:52:32.460Z,38.97
2022-11-29T16:54:59.452Z,44.28
2022-11-29T16:57:28.614Z,42.53
2022-11-29T16:59:55.142Z,42.15
2022-11-29T17:02:21.774Z,42.60
2022-11-29T17:04:48.646Z,43.90
2022-11-29T17:07:22.467Z,39.17
2022-11-29T17:09:49.098Z,43.42
2022-11-29T17:12:15.620Z,46.88
2022-11-29T17:14:42.576Z,55.90
2022-11-29T17:17:15.576Z,53.53
2022-11-29T17:19:42.289Z,56.78
2022-11-29T17:22:09.094Z,52.03
2022-11-29T17:24:37.088Z,50.30
2022-11-29T17:27:03.890Z,50.03
2022-11-29T17:29:30.508Z,46.50
2022-11-29T17:31:57.306Z,45.42
2022-11-29T17:34:23.897Z,42.42
2022-11-29T17:36:51.778Z,45.80
2022-11-29T17:39:20.187Z,40.67
2022-11-29T17:41:47.025Z,40.58
2022-11-29T17:44:13.492Z,44.53
2022-11-29T17:49:08.724Z,53.25
2022-11-29T17:51:51.548Z,46.70
2022-11-29T17:54:19.089Z,46.53
2022-11-29T17:56:45.648Z,46.85
2022-11-29T17:59:12.158Z,48.28
2022-11-29T18:01:38.781Z,47.63
2022-11-29T18:04:06.669Z,44.25
2022-11-29T18:06:38.565Z,38.03
2022-11-29T18:09:07.759Z,42.28
2022-11-29T18:11:48.257Z,40.47
2022-11-29T18:14:18.872Z,44.05
2022-11-29T18:16:45.617Z,42.03
2022-11-29T18:19:15.189Z,44.42
2022-11-29T18:21:41.767Z,50.70
2022-11-29T18:24:08.377Z,44.03
2022-11-29T18:26:36.397Z,48.45
2022-11-29T18:29:04.119Z,50.08
2022-11-29T18:31:33.635Z,54.83
2022-11-29T18:34:02.075Z,57.75
2022-11-29T18:36:33.555Z,60.22
2022-11-29T18:39:03.413Z,58.72
2022-11-29T18:41:31.431Z,54.63
2022-11-29T18:44:02.941Z,53.05
2022-11-29T18:46:33.244Z,53.28
2022-11-29T18:49:03.460Z,58.33
2022-11-29T18:51:31.277Z,53.97
2022-11-29T18:53:58.834Z,58.05
2022-11-29T18:56:27.439Z,56.72
2022-11-29T18:58:58.252Z,54.88
2022-11-29T19:01:27.634Z,47.13
2022-11-29T19:03:55.782Z,53.45
2022-11-29T19:06:25.736Z,50.42
2022-11-29T19:08:52.951Z,53.78
2022-11-29T19:11:21.848Z,44.05
2022-11-29T19:13:56.792Z,47.83
2022-11-29T19:16:25.443Z,47.80
2022-11-29T19:18:53.749Z,37.88
2022-11-29T19:21:21.467Z,42.53
2022-11-29T19:23:57.211Z,40.75
2022-11-29T19:26:26.270Z,46.92
2022-11-29T19:28:53.320Z,41.90
2022-11-29T19:31:23.873Z,40.63
2022-11-29T19:33:52.359Z,42.78
2022-11-29T19:36:22.253Z,44.83
2022-11-29T19:38:53.463Z,42.35
2022-11-29T19:41:23.594Z,44.10
2022-11-29T19:43:50.937Z,43.90
2022-11-29T19:46:22.656Z,42.72
2022-11-29T19:48:51.428Z,47.63
2022-11-29T19:51:17.952Z,42.70
2022-11-29T19:53:46.204Z,42.60
2022-11-29T19:56:16.821Z,44.55
2022-11-29T19:58:44.210Z,41.28
2022-11-29T20:01:20.030Z,50.30
2022-11-29T20:03:46.540Z,51.70
2022-11-29T20:08:42.996Z,46.97
2022-11-29T20:11:19.013Z,53.85
2022-11-29T20:13:47.438Z,49.20
2022-11-29T20:16:16.980Z,58.05
2022-11-29T20:18:50.713Z,58.25
2022-11-29T20:21:22.245Z,62.75
2022-11-29T20:23:49.340Z,63.72
2022-11-29T20:26:20.194Z,60.50
2022-11-29T20:28:47.326Z,60.13
2022-11-29T20:31:17.511Z,64.22
2022-11-29T20:33:45.668Z,75.22
2022-11-29T20:36:34.037Z,115.80
2022-11-29T20:39:18.787Z,138.60
2022-11-29T20:41:53.873Z,116.13
2022-11-29T20:44:41.534Z,87.28
2022-11-29T20:47:21.593Z,72.15
2022-11-29T20:49:48.981Z,66.97
2022-11-29T20:52:43.083Z,57.40
2022-11-29T20:55:09.543Z,57.30
2022-11-29T20:57:38.304Z,59.42
2022-11-29T21:00:11.336Z,56.28
2022-11-29T21:02:38.281Z,52.97
2022-11-29T21:05:05.311Z,51.42
2022-11-29T21:07:31.996Z,52.97
2022-11-29T21:10:01.399Z,49.83
2022-11-29T21:12:29.302Z,56.67
2022-11-29T21:14:56.041Z,63.55
2022-11-29T21:17:22.776Z,50.60
2022-11-29T21:19:49.559Z,53.65
2022-11-29T21:23:04.640Z,54.72
2022-11-29T21:25:31.056Z,56.45
2022-11-29T21:30:25.002Z,46.60
2022-11-29T21:32:52.113Z,56.30
2022-11-29T21:35:18.639Z,50.90
2022-11-29T21:37:46.140Z,52.92
2022-11-29T21:40:14.007Z,53.00
2022-11-29T21:42:40.727Z,48.20
2022-11-29T21:45:13.403Z,51.55
2022-11-29T21:47:41.995Z,52.40
2022-11-29T21:50:08.835Z,53.75
2022-11-29T21:52:35.359Z,57.78
2022-11-29T21:57:28.382Z,58.28
2022-11-29T22:02:21.424Z,58.13
2022-11-29T22:04:48.316Z,51.47
2022-11-29T22:07:15.099Z,54.83
2022-11-29T22:09:41.571Z,50.20
2022-11-29T22:14:54.449Z,50.03
2022-11-29T22:19:47.299Z,50.10
2022-11-29T22:22:14.361Z,52.20
2022-11-29T22:27:07.236Z,49.60
2022-11-29T22:32:01.102Z,50.60
2022-11-29T22:34:28.272Z,52.88
2022-11-29T22:36:55.182Z,46.92
2022-11-29T22:39:22.567Z,51.40
2022-11-29T22:41:53.931Z,49.15
2022-11-29T22:44:21.748Z,50.70
2022-11-29T22:46:48.482Z,53.75
2022-11-29T22:49:15.006Z,48.90
2022-11-29T22:54:09.624Z,48.88
2022-11-29T22:56:40.637Z,51.08
2022-11-29T22:59:07.787Z,48.90
2022-11-29T23:18:15.208Z,48.20
2022-11-29T23:20:41.785Z,54.55
2022-11-29T23:23:08.290Z,51.47
2022-11-29T23:25:34.891Z,61.33
2022-11-29T23:28:02.281Z,62.42
2022-11-29T23:30:28.819Z,59.90
2022-11-29T23:32:55.308Z,55.45
2022-11-29T23:37:48.890Z,60.65
2022-11-29T23:42:45.093Z,56.83
2022-11-29T23:45:13.726Z,56.42
2022-11-29T23:47:40.220Z,54.75
2022-11-29T23:52:33.674Z,56.80
2022-11-29T23:55:00.190Z,62.47
2022-11-29T23:59:55.436Z,65.65
